createdAt,value
2019-02-28T00:00:41.883Z,16.37
2019-02-28T00:03:08.082Z,18.35
2019-02-28T00:05:34.256Z,18.40
2019-02-28T00:08:00.478Z,17.20
2019-02-28T00:10:28.180Z,22.75
2019-02-28T00:12:54.566Z,21.05
2019-02-28T00:15:20.748Z,19.07
2019-02-28T00:17:46.964Z,18.23
2019-02-28T00:20:13.142Z,15.78
2019-02-28T00:22:39.318Z,18.52
2019-02-28T00:25:05.510Z,21.73
2019-02-28T00:27:31.747Z,18.27
2019-02-28T00:29:57.915Z,20.45
2019-02-28T00:32:24.843Z,20.40
2019-02-28T00:34:51.765Z,17.25
2019-02-28T00:37:17.999Z,21.23
2019-02-28T00:39:44.192Z,18.32
2019-02-28T00:42:10.364Z,16.93
2019-02-28T00:44:36.560Z,18.70
2019-02-28T00:47:02.813Z,17.37
2019-02-28T00:49:28.984Z,18.90
2019-02-28T00:51:55.175Z,17.85
2019-02-28T00:54:21.352Z,16.90
2019-02-28T00:56:51.530Z,15.80
2019-02-28T00:59:15.524Z,17.15
2019-02-28T01:01:43.089Z,16.90
2019-02-28T01:04:09.620Z,17.50
2019-02-28T01:06:35.821Z,21.27
2019-02-28T01:09:02.012Z,17.45
2019-02-28T01:11:28.206Z,16.15
2019-02-28T01:13:54.388Z,15.98
2019-02-28T01:16:20.590Z,16.67
2019-02-28T01:18:46.928Z,19.37
2019-02-28T01:21:13.095Z,15.53
2019-02-28T01:23:39.274Z,18.55
2019-02-28T01:26:05.466Z,19.40
2019-02-28T01:28:31.645Z,16.80
2019-02-28T01:30:57.814Z,17.45
2019-02-28T01:33:25.029Z,17.23
2019-02-28T01:35:51.870Z,14.00
2019-02-28T01:38:18.052Z,15.23
2019-02-28T01:40:44.228Z,17.07
2019-02-28T01:43:10.416Z,17.60
2019-02-28T01:45:36.591Z,17.35
2019-02-28T01:48:02.876Z,15.15
2019-02-28T01:50:29.615Z,20.90
2019-02-28T01:52:56.579Z,17.95
2019-02-28T01:55:22.785Z,14.75
2019-02-28T01:57:48.992Z,16.73
2019-02-28T02:00:15.191Z,16.85
2019-02-28T02:02:41.370Z,16.25
2019-02-28T02:05:07.538Z,15.80
2019-02-28T02:07:33.898Z,17.77
2019-02-28T02:10:00.150Z,15.55
2019-02-28T02:12:26.321Z,16.27
2019-02-28T02:14:52.493Z,17.98
2019-02-28T02:17:18.760Z,16.62
2019-02-28T02:19:44.932Z,17.35
2019-02-28T02:22:11.105Z,16.55
2019-02-28T02:24:37.298Z,14.63
2019-02-28T02:27:03.544Z,15.85
2019-02-28T02:29:32.440Z,15.40
2019-02-28T02:32:00.992Z,14.80
2019-02-28T02:34:28.258Z,18.35
2019-02-28T02:36:54.546Z,15.68
2019-02-28T02:39:20.768Z,17.65
2019-02-28T02:41:46.950Z,16.65
2019-02-28T02:44:13.152Z,15.48
2019-02-28T02:46:39.415Z,15.68
2019-02-28T02:49:05.580Z,17.32
2019-02-28T02:51:31.772Z,17.98
2019-02-28T02:53:57.950Z,16.23
2019-02-28T02:56:24.160Z,19.12
2019-02-28T02:58:50.329Z,14.63
2019-02-28T03:01:16.500Z,19.75
2019-02-28T03:03:44.384Z,16.27
2019-02-28T03:06:13.926Z,16.57
2019-02-28T03:08:38.712Z,14.78
2019-02-28T03:11:04.901Z,13.70
2019-02-28T03:13:31.081Z,12.90
2019-02-28T03:15:59.333Z,18.15
2019-02-28T03:18:25.153Z,16.75
2019-02-28T03:20:51.328Z,15.40
2019-02-28T03:23:17.507Z,15.65
2019-02-28T03:25:43.755Z,17.20
2019-02-28T03:28:09.937Z,14.58
2019-02-28T03:30:36.129Z,15.03
2019-02-28T03:33:02.403Z,17.48
2019-02-28T03:35:40.005Z,16.55
2019-02-28T03:37:56.586Z,14.33
2019-02-28T03:40:22.770Z,12.90
2019-02-28T03:42:48.972Z,13.65
2019-02-28T03:45:15.142Z,12.82
2019-02-28T03:47:41.326Z,11.60
2019-02-28T03:50:07.506Z,15.28
2019-02-28T03:52:33.691Z,15.28
2019-02-28T03:55:03.183Z,15.03
2019-02-28T03:57:29.327Z,16.35
2019-02-28T03:59:57.032Z,19.30
2019-02-28T04:02:23.390Z,14.78
2019-02-28T04:04:50.431Z,15.40
2019-02-28T04:07:17.082Z,16.70
2019-02-28T04:09:44.242Z,12.10
2019-02-28T04:12:11.392Z,13.05
2019-02-28T04:14:37.568Z,12.93
2019-02-28T04:17:03.832Z,14.58
2019-02-28T04:19:30.032Z,13.88
2019-02-28T04:21:56.210Z,14.35
2019-02-28T04:24:22.376Z,13.35
2019-02-28T04:26:48.573Z,13.88
2019-02-28T04:29:14.747Z,15.03
2019-02-28T04:31:40.906Z,14.45
2019-02-28T04:34:13.088Z,13.10
2019-02-28T04:36:35.817Z,13.38
2019-02-28T04:39:02.865Z,13.35
2019-02-28T04:41:32.510Z,11.97
2019-02-28T04:43:56.946Z,11.73
2019-02-28T04:46:23.235Z,14.70
2019-02-28T04:48:49.423Z,11.60
2019-02-28T04:51:15.588Z,12.03
2019-02-28T04:53:41.782Z,10.75
2019-02-28T04:56:11.365Z,13.25
2019-02-28T04:58:35.907Z,13.18
2019-02-28T05:01:02.077Z,13.22
2019-02-28T05:03:29.222Z,14.93
2019-02-28T05:05:55.514Z,13.05
2019-02-28T05:08:22.588Z,10.68
2019-02-28T05:10:48.758Z,16.02
2019-02-28T05:13:15.049Z,14.68
2019-02-28T05:15:41.368Z,15.05
2019-02-28T05:18:07.533Z,12.07
2019-02-28T05:20:33.729Z,12.40
2019-02-28T05:23:02.611Z,16.73
2019-02-28T05:25:27.792Z,13.48
2019-02-28T05:27:54.032Z,15.30
2019-02-28T05:30:20.213Z,13.18
2019-02-28T05:32:46.374Z,15.13
2019-02-28T05:35:12.578Z,11.10
2019-02-28T05:37:38.816Z,12.23
2019-02-28T05:40:06.117Z,12.98
2019-02-28T05:42:33.057Z,17.62
2019-02-28T05:44:59.223Z,12.60
2019-02-28T05:47:26.092Z,13.20
2019-02-28T05:49:52.452Z,15.45
2019-02-28T05:52:18.621Z,19.45
2019-02-28T05:54:47.205Z,21.73
2019-02-28T05:57:12.945Z,18.92
2019-02-28T05:59:39.346Z,22.35
2019-02-28T06:02:05.584Z,20.43
2019-02-28T06:04:34.171Z,21.73
2019-02-28T06:06:59.712Z,20.23
2019-02-28T06:09:25.884Z,26.68
2019-02-28T06:11:52.084Z,26.77
2019-02-28T06:14:18.252Z,21.90
2019-02-28T06:16:46.941Z,30.88
2019-02-28T06:19:12.449Z,28.80
2019-02-28T06:21:38.623Z,25.12
2019-02-28T06:24:04.794Z,29.30
2019-02-28T06:26:31.785Z,32.25
2019-02-28T06:28:58.900Z,29.80
2019-02-28T06:31:25.078Z,29.85
2019-02-28T06:33:51.274Z,31.55
2019-02-28T06:36:17.537Z,32.40
2019-02-28T06:38:43.710Z,31.12
2019-02-28T06:41:09.926Z,33.75
2019-02-28T06:43:36.108Z,31.68
2019-02-28T06:46:03.717Z,41.83
2019-02-28T06:48:30.043Z,26.75
2019-02-28T06:50:56.214Z,29.95
2019-02-28T06:53:22.381Z,34.50
2019-02-28T06:55:48.637Z,30.60
2019-02-28T06:58:14.811Z,25.43
2019-02-28T07:00:40.995Z,26.35
2019-02-28T07:03:07.197Z,28.25
2019-02-28T07:05:33.418Z,30.95
2019-02-28T07:07:59.590Z,26.10
2019-02-28T07:10:25.793Z,24.02
2019-02-28T07:12:52.004Z,24.87
2019-02-28T07:15:23.699Z,23.05
2019-02-28T07:17:47.505Z,24.92
2019-02-28T07:20:13.857Z,23.40
2019-02-28T07:22:40.220Z,26.35
2019-02-28T07:25:09.410Z,24.63
2019-02-28T07:27:34.411Z,20.32
2019-02-28T07:30:00.616Z,21.37
2019-02-28T07:32:26.808Z,21.42
2019-02-28T07:34:55.032Z,19.95
2019-02-28T07:37:20.884Z,20.35
2019-02-28T07:39:47.077Z,19.60
2019-02-28T07:42:13.256Z,21.20
2019-02-28T07:44:39.479Z,20.20
2019-02-28T07:47:05.698Z,16.85
2019-02-28T07:49:35.839Z,20.15
2019-02-28T07:51:59.761Z,23.42
2019-02-28T07:54:25.972Z,22.62
2019-02-28T07:56:52.218Z,19.35
2019-02-28T07:59:18.400Z,16.67
2019-02-28T08:01:44.709Z,19.77
2019-02-28T08:04:10.875Z,15.53
2019-02-28T08:06:39.393Z,21.80
2019-02-28T08:09:05.559Z,15.70
2019-02-28T08:11:31.822Z,15.83
2019-02-28T08:13:58.004Z,15.03
2019-02-28T08:16:24.245Z,17.98
2019-02-28T08:18:51.262Z,17.87
2019-02-28T08:21:18.315Z,16.80
2019-02-28T08:23:44.560Z,16.90
2019-02-28T08:26:10.788Z,15.68
2019-02-28T08:28:37.097Z,16.00
2019-02-28T08:31:03.302Z,19.10
2019-02-28T08:33:29.472Z,16.27
2019-02-28T08:35:55.681Z,16.40
2019-02-28T08:38:21.884Z,20.82
2019-02-28T08:40:51.454Z,14.38
2019-02-28T08:43:15.971Z,16.32
2019-02-28T08:45:42.164Z,13.78
2019-02-28T08:48:08.344Z,11.38
2019-02-28T08:50:34.511Z,14.60
2019-02-28T08:53:00.708Z,12.00
2019-02-28T08:55:29.035Z,11.95
2019-02-28T08:57:57.962Z,13.50
2019-02-28T09:00:22.789Z,14.13
2019-02-28T09:02:52.207Z,11.57
2019-02-28T09:05:16.883Z,16.75
2019-02-28T09:07:43.086Z,13.00
2019-02-28T09:10:11.715Z,11.80
2019-02-28T09:12:37.168Z,10.63
2019-02-28T09:15:03.358Z,13.80
2019-02-28T09:17:29.524Z,11.45
2019-02-28T09:19:55.694Z,12.90
2019-02-28T09:22:27.005Z,10.43
2019-02-28T09:24:49.796Z,10.38
2019-02-28T09:27:15.976Z,13.15
2019-02-28T09:29:42.184Z,10.72
2019-02-28T09:32:10.234Z,10.20
2019-02-28T09:34:36.266Z,12.15
2019-02-28T09:37:02.500Z,12.93
2019-02-28T09:39:28.672Z,12.75
2019-02-28T09:41:54.844Z,12.63
2019-02-28T09:44:21.036Z,9.63
2019-02-28T09:46:50.563Z,10.70
2019-02-28T09:49:15.178Z,9.98
2019-02-28T09:51:42.527Z,12.63
2019-02-28T09:54:08.824Z,11.38
2019-02-28T09:56:35.104Z,13.53
2019-02-28T09:59:03.139Z,11.50
2019-02-28T10:01:29.180Z,10.43
2019-02-28T10:03:56.203Z,11.38
2019-02-28T10:06:22.440Z,12.23
2019-02-28T10:08:48.609Z,10.98
2019-02-28T10:11:14.794Z,13.25
2019-02-28T10:13:40.980Z,13.35
2019-02-28T10:16:07.188Z,10.72
2019-02-28T10:18:35.605Z,11.15
2019-02-28T10:21:01.910Z,10.40
2019-02-28T10:23:28.944Z,13.50
2019-02-28T10:25:55.143Z,10.40
2019-02-28T10:28:21.316Z,10.43
2019-02-28T10:30:50.121Z,10.70
2019-02-28T10:33:17.359Z,11.88
2019-02-28T10:35:43.342Z,11.00
2019-02-28T10:38:09.540Z,13.85
2019-02-28T10:40:35.721Z,13.85
2019-02-28T10:43:01.897Z,12.68
2019-02-28T10:45:28.198Z,12.68
2019-02-28T10:47:54.419Z,13.53
2019-02-28T10:50:20.612Z,12.35
2019-02-28T10:52:46.802Z,12.10
2019-02-28T10:55:13.088Z,11.25
2019-02-28T10:57:40.633Z,12.80
2019-02-28T11:00:07.201Z,10.50
2019-02-28T11:02:33.379Z,11.48
2019-02-28T11:04:59.640Z,13.22
2019-02-28T11:07:25.843Z,12.63
2019-02-28T11:09:52.060Z,12.40
2019-02-28T11:12:20.418Z,12.53
2019-02-28T11:14:46.156Z,12.95
2019-02-28T11:17:13.828Z,14.98
2019-02-28T11:19:40.172Z,13.75
2019-02-28T11:22:06.371Z,14.63
2019-02-28T11:24:32.549Z,14.38
2019-02-28T11:26:58.730Z,11.33
2019-02-28T11:29:24.917Z,14.93
2019-02-28T11:31:54.255Z,11.85
2019-02-28T11:34:19.033Z,11.95
2019-02-28T11:36:45.218Z,11.95
2019-02-28T11:39:11.386Z,12.40
2019-02-28T11:41:37.580Z,12.65
2019-02-28T11:44:03.752Z,13.62
2019-02-28T11:46:29.931Z,11.22
2019-02-28T11:48:56.132Z,12.50
2019-02-28T11:51:22.313Z,13.90
2019-02-28T11:53:48.491Z,10.95
2019-02-28T11:56:14.777Z,10.50
2019-02-28T11:58:40.956Z,9.03
2019-02-28T12:01:10.213Z,11.48
2019-02-28T12:03:35.433Z,9.35
2019-02-28T12:06:02.649Z,12.80
2019-02-28T12:08:28.802Z,11.45
2019-02-28T12:10:55.004Z,10.00
2019-02-28T12:13:21.184Z,12.47
2019-02-28T12:15:47.450Z,10.88
2019-02-28T12:18:13.651Z,10.53
2019-02-28T12:20:39.831Z,11.35
2019-02-28T12:23:06.010Z,12.15
2019-02-28T12:25:33.219Z,8.35
2019-02-28T12:28:02.516Z,9.43
2019-02-28T12:30:27.282Z,9.33
2019-02-28T12:32:53.500Z,13.62
2019-02-28T12:35:19.741Z,8.75
2019-02-28T12:37:45.912Z,9.48
2019-02-28T12:40:12.099Z,11.55
2019-02-28T12:42:38.271Z,9.98
2019-02-28T12:45:04.488Z,8.83
2019-02-28T12:47:30.655Z,9.70
2019-02-28T12:49:57.280Z,9.58
2019-02-28T12:52:24.094Z,9.78
2019-02-28T12:54:50.292Z,8.58
2019-02-28T12:57:19.282Z,10.80
2019-02-28T12:59:46.012Z,8.88
2019-02-28T13:02:12.301Z,9.05
2019-02-28T13:04:38.484Z,9.35
2019-02-28T13:07:04.670Z,9.00
2019-02-28T13:09:30.877Z,8.75
2019-02-28T13:11:57.012Z,8.43
2019-02-28T13:14:23.206Z,9.08
2019-02-28T13:16:49.374Z,9.65
2019-02-28T13:19:16.444Z,9.78
2019-02-28T13:21:46.563Z,8.93
2019-02-28T13:24:11.386Z,9.35
2019-02-28T13:26:37.563Z,10.03
2019-02-28T13:29:03.767Z,8.58
2019-02-28T13:31:29.952Z,14.00
2019-02-28T13:33:56.134Z,7.87
2019-02-28T13:36:22.743Z,9.75
2019-02-28T13:38:49.525Z,7.95
2019-02-28T13:41:18.312Z,8.65
2019-02-28T13:43:44.925Z,9.30
2019-02-28T13:46:13.031Z,9.85
2019-02-28T13:48:39.268Z,10.35
2019-02-28T13:51:08.430Z,8.90
2019-02-28T13:53:33.395Z,9.45
2019-02-28T13:55:59.657Z,9.18
2019-02-28T13:58:25.851Z,8.35
2019-02-28T14:00:52.028Z,9.05
2019-02-28T14:03:18.201Z,10.10
2019-02-28T14:05:44.511Z,9.53
2019-02-28T14:08:12.044Z,9.68
2019-02-28T14:10:38.711Z,8.00
2019-02-28T14:13:04.979Z,8.93
2019-02-28T14:15:31.220Z,9.03
2019-02-28T14:17:57.401Z,10.28
2019-02-28T14:20:24.492Z,10.08
2019-02-28T14:22:51.522Z,8.80
2019-02-28T14:25:17.786Z,6.85
2019-02-28T14:27:43.962Z,7.10
2019-02-28T14:30:10.127Z,8.40
2019-02-28T14:32:38.748Z,7.00
2019-02-28T14:35:04.259Z,8.38
2019-02-28T14:37:30.436Z,10.88
2019-02-28T14:39:56.620Z,7.40
2019-02-28T14:42:22.825Z,7.85
2019-02-28T14:44:49.039Z,6.78
2019-02-28T14:47:15.222Z,6.85
2019-02-28T14:49:43.898Z,7.90
2019-02-28T14:52:09.362Z,9.48
2019-02-28T14:54:35.597Z,8.03
2019-02-28T14:57:01.793Z,7.67
2019-02-28T14:59:28.563Z,8.33
2019-02-28T15:01:55.876Z,7.17
2019-02-28T15:04:22.084Z,7.00
2019-02-28T15:06:48.261Z,7.47
2019-02-28T15:09:14.439Z,6.75
2019-02-28T15:11:43.583Z,5.53
2019-02-28T15:14:09.556Z,8.05
2019-02-28T15:16:35.975Z,6.97
2019-02-28T15:19:02.162Z,5.97
2019-02-28T15:21:28.342Z,6.05
2019-02-28T15:23:54.516Z,6.78
2019-02-28T15:26:20.717Z,5.42
2019-02-28T15:28:48.649Z,5.95
2019-02-28T15:31:14.816Z,8.15
2019-02-28T15:33:41.010Z,7.42
2019-02-28T15:36:07.230Z,5.87
2019-02-28T15:38:33.403Z,7.20
2019-02-28T15:40:59.603Z,6.95
2019-02-28T15:43:25.779Z,8.68
2019-02-28T15:45:52.050Z,6.55
2019-02-28T15:48:18.324Z,13.78
2019-02-28T15:50:44.503Z,5.75
2019-02-28T15:53:11.235Z,8.08
2019-02-28T15:55:38.638Z,6.65
2019-02-28T15:58:05.761Z,6.22
2019-02-28T16:00:32.749Z,6.15
2019-02-28T16:02:58.919Z,6.03
2019-02-28T16:05:25.161Z,7.92
2019-02-28T16:07:51.357Z,10.32
2019-02-28T16:10:17.535Z,7.28
2019-02-28T16:12:46.574Z,7.35
2019-02-28T16:15:12.594Z,6.20
2019-02-28T16:17:38.800Z,6.75
2019-02-28T16:20:04.975Z,6.70
2019-02-28T16:22:31.163Z,5.58
2019-02-28T16:24:57.351Z,7.37
2019-02-28T16:27:23.921Z,6.87
2019-02-28T16:29:52.224Z,7.95
2019-02-28T16:32:17.983Z,8.23
2019-02-28T16:34:44.347Z,6.97
2019-02-28T16:37:10.524Z,7.95
2019-02-28T16:39:36.714Z,7.97
2019-02-28T16:42:02.912Z,9.10
2019-02-28T16:44:30.964Z,7.03
2019-02-28T16:46:57.020Z,7.95
2019-02-28T16:49:23.222Z,8.75
2019-02-28T16:51:49.399Z,10.58
2019-02-28T16:54:15.576Z,7.50
2019-02-28T16:56:41.776Z,8.85
2019-02-28T16:59:07.959Z,8.33
2019-02-28T17:01:34.133Z,9.40
2019-02-28T17:04:00.465Z,8.20
2019-02-28T17:06:26.614Z,9.50
2019-02-28T17:08:54.589Z,7.80
2019-02-28T17:11:20.764Z,8.85
2019-02-28T17:13:46.923Z,8.03
2019-02-28T17:16:13.100Z,8.15
2019-02-28T17:18:39.300Z,11.03
2019-02-28T17:21:05.467Z,9.93
2019-02-28T17:23:33.691Z,8.18
2019-02-28T17:25:59.576Z,7.97
2019-02-28T17:28:25.756Z,9.90
2019-02-28T17:30:51.933Z,9.73
2019-02-28T17:33:18.124Z,10.90
2019-02-28T17:35:44.347Z,9.73
2019-02-28T17:38:10.511Z,11.15
2019-02-28T17:40:36.721Z,11.35
2019-02-28T17:43:02.979Z,11.43
2019-02-28T17:45:29.162Z,10.88
2019-02-28T17:47:55.354Z,37.42
2019-02-28T17:50:21.707Z,40.58
2019-02-28T17:52:47.882Z,39.45
2019-02-28T17:55:14.120Z,42.13
2019-02-28T17:57:41.647Z,51.35
2019-02-28T18:00:07.950Z,26.75
2019-02-28T18:02:34.143Z,41.18
2019-02-28T18:05:00.331Z,41.08
2019-02-28T18:07:26.670Z,28.90
2019-02-28T18:09:52.870Z,37.90
2019-02-28T18:12:19.051Z,87.75
2019-02-28T18:14:45.248Z,34.67
2019-02-28T18:17:11.449Z,22.13
2019-02-28T18:19:37.614Z,29.23
2019-02-28T18:22:03.786Z,35.75
2019-02-28T18:24:29.994Z,29.98
2019-02-28T18:26:56.221Z,33.25
2019-02-28T18:29:22.429Z,21.82
2019-02-28T18:31:48.615Z,24.45
2019-02-28T18:34:17.017Z,28.02
2019-02-28T18:36:43.418Z,24.75
2019-02-28T18:39:11.588Z,21.85
2019-02-28T18:41:38.933Z,21.48
2019-02-28T18:44:07.702Z,22.30
2019-02-28T18:46:34.080Z,22.32
2019-02-28T18:49:00.247Z,21.62
2019-02-28T18:51:26.448Z,24.52
2019-02-28T18:53:52.700Z,25.50
2019-02-28T18:56:18.883Z,23.25
2019-02-28T18:58:45.080Z,21.40
2019-02-28T19:01:11.901Z,21.45
2019-02-28T19:03:38.074Z,24.15
2019-02-28T19:06:04.287Z,24.20
2019-02-28T19:08:30.466Z,14.58
2019-02-28T19:10:56.691Z,14.25
2019-02-28T19:13:25.239Z,13.30
2019-02-28T19:15:51.412Z,12.50
2019-02-28T19:18:17.580Z,13.55
2019-02-28T19:20:43.776Z,10.38
2019-02-28T19:23:09.935Z,9.60
2019-02-28T19:25:36.245Z,10.88
2019-02-28T19:28:02.446Z,12.85
2019-02-28T19:30:28.622Z,11.00
2019-02-28T19:32:54.787Z,9.15
2019-02-28T19:35:20.984Z,8.90
2019-02-28T19:37:47.147Z,9.03
2019-02-28T19:40:13.320Z,12.90
2019-02-28T19:42:39.510Z,9.58
2019-02-28T19:45:06.792Z,14.60
2019-02-28T19:47:32.959Z,8.83
2019-02-28T19:49:59.151Z,7.83
2019-02-28T19:52:25.323Z,9.23
2019-02-28T19:54:51.510Z,7.60
2019-02-28T19:57:17.777Z,10.05
2019-02-28T19:59:44.349Z,9.68
2019-02-28T20:02:10.332Z,10.03
2019-02-28T20:04:36.556Z,12.85
2019-02-28T20:07:02.724Z,15.20
2019-02-28T20:09:28.905Z,19.05
2019-02-28T20:11:55.097Z,27.45
2019-02-28T20:14:21.342Z,31.60
2019-02-28T20:16:47.513Z,22.62
2019-02-28T20:19:13.715Z,25.97
2019-02-28T20:21:39.886Z,16.48
2019-02-28T20:24:06.153Z,25.25
2019-02-28T20:26:32.357Z,19.35
2019-02-28T20:28:58.533Z,25.12
2019-02-28T20:31:24.703Z,22.35
2019-02-28T20:33:50.900Z,20.62
2019-02-28T20:36:17.074Z,15.28
2019-02-28T20:38:43.250Z,17.02
2019-02-28T20:41:09.444Z,18.23
2019-02-28T20:43:35.683Z,21.80
2019-02-28T20:46:01.889Z,16.50
2019-02-28T20:48:28.194Z,16.85
2019-02-28T20:50:54.397Z,21.12
2019-02-28T20:53:20.527Z,31.15
2019-02-28T20:55:46.724Z,29.32
2019-02-28T20:58:13.437Z,27.25
2019-02-28T21:00:39.609Z,37.28
2019-02-28T21:03:05.798Z,29.27
2019-02-28T21:05:31.967Z,35.15
2019-02-28T21:07:58.136Z,34.60
2019-02-28T21:10:24.334Z,30.50
2019-02-28T21:12:50.501Z,27.50
2019-02-28T21:15:16.817Z,30.02
2019-02-28T21:17:43.013Z,21.55
2019-02-28T21:20:09.186Z,22.00
2019-02-28T21:22:35.367Z,23.98
2019-02-28T21:25:01.616Z,15.83
2019-02-28T21:27:27.787Z,27.27
2019-02-28T21:29:53.955Z,20.70
2019-02-28T21:32:20.153Z,19.50
2019-02-28T21:34:46.479Z,19.45
2019-02-28T21:37:12.562Z,21.85
2019-02-28T21:39:38.749Z,21.68
2019-02-28T21:42:05.046Z,19.17
2019-02-28T21:44:31.312Z,26.75
2019-02-28T21:46:57.511Z,18.40
2019-02-28T21:49:23.682Z,15.58
2019-02-28T21:51:49.852Z,24.80
2019-02-28T21:54:16.060Z,18.32
2019-02-28T21:56:42.283Z,27.30
2019-02-28T21:59:08.445Z,20.82
2019-02-28T22:01:34.700Z,14.55
2019-02-28T22:04:00.944Z,16.07
2019-02-28T22:06:27.145Z,15.68
2019-02-28T22:08:53.352Z,15.50
2019-02-28T22:11:19.572Z,14.43
2019-02-28T22:13:45.776Z,13.40
2019-02-28T22:16:11.951Z,19.20
2019-02-28T22:18:38.124Z,18.55
2019-02-28T22:21:04.290Z,11.68
2019-02-28T22:23:30.501Z,14.78
2019-02-28T22:25:56.677Z,14.73
2019-02-28T22:28:22.855Z,11.80
2019-02-28T22:30:49.063Z,12.90
2019-02-28T22:33:15.272Z,13.80
2019-02-28T22:35:41.441Z,16.20
2019-02-28T22:38:07.692Z,15.80
2019-02-28T22:40:33.862Z,12.95
2019-02-28T22:43:00.029Z,16.07
2019-02-28T22:45:26.220Z,15.28
2019-02-28T22:47:52.397Z,10.95
2019-02-28T22:50:18.582Z,10.32
2019-02-28T22:52:44.773Z,13.28
2019-02-28T22:55:10.994Z,14.90
2019-02-28T22:57:37.163Z,11.85
2019-02-28T23:00:03.339Z,10.30
2019-02-28T23:02:29.507Z,10.70
2019-02-28T23:04:55.797Z,10.45
2019-02-28T23:07:21.970Z,9.55
2019-02-28T23:09:48.149Z,10.28
2019-02-28T23:12:14.352Z,11.57
2019-02-28T23:14:40.571Z,9.55
2019-02-28T23:17:06.751Z,9.10
2019-02-28T23:19:32.952Z,10.45
2019-02-28T23:21:59.120Z,12.43
2019-02-28T23:24:25.389Z,12.65
2019-02-28T23:26:51.580Z,8.73
2019-02-28T23:29:17.755Z,8.93
2019-02-28T23:31:43.932Z,10.03
2019-02-28T23:34:10.130Z,9.88
2019-02-28T23:36:36.303Z,8.13
2019-02-28T23:39:02.480Z,11.43
2019-02-28T23:41:28.679Z,9.85
2019-02-28T23:43:54.910Z,9.65
2019-02-28T23:46:21.081Z,10.75
2019-02-28T23:48:47.276Z,6.28
2019-02-28T23:51:13.447Z,8.30
2019-02-28T23:53:39.623Z,10.93
2019-02-28T23:56:05.823Z,6.72
2019-02-28T23:58:32.002Z,8.70
